PPR-pyyntö

Ennakkolupa on pakollinen lentoonlähtöjä ja laskuja varten. Pyydä ennakkolupa tästä.

Laskukierrosvaraus

Tee ensin PPR-pyyntö, sitten vasta laskukierrosvaraus. Hinta 5 € / 15 min.

Aerodrome Info

Updated 12 DEC 2017 12:26 LT

  • Some asphalt damage south of RWY 36 threshold.
  • Wet snow on RWY, aprons and taxiways.
  • Preferred rwy

Contact duty officer at +358 20 7545 129 for more information.

Weather


Helsinki Malmi lentokenttä
AWS ILHF 122300Z AUTO 26008KT 9999 OVC007 01/00 Q0985=

METAR EFHK 122250Z 25011KT 9999 FEW006 BKN008 BKN011 01/M01 Q0985 BECMG BKN015=
TAF AMD EFHK 122058Z 1221/1321 23014KT 9999 BKN008 TEMPO 1221/1223 BKN011 BECMG 1223/1301 BKN015 TEMPO 1303/1307 5000 -SN PROB40 1303/1307 SCT020CB TEMPO 1315/1318 4000 -SNRA BKN011 SCT030CB=

Helsinki-Malmin lentoasema

Tervetuloa Helsinki-Malmin lentokentälle

Malmin lentokenttäyhdistys ry on yleishyödyllinen yhdistys, joka toimii Suomen vilkkaimman yleisilmailukentän, Helsinki-Malmin operaattorina. Yhdistyksen toiminnassa ovat mukana kentällä toimivat yhteisöt sekä suuri joukko yleisilmailijoita.

Malmin lentokentän toiminta rahoitetaan jäsen- ja kausikorttimaksuin. Ole mukana jatkamassa Malmin lentotoimintaa ja liity jäseneksi!